createdAt,value
2019-05-09T00:00:25.522Z,99482.67
2019-05-09T00:02:57.797Z,99478.73
2019-05-09T00:05:30.018Z,99479.19
2019-05-09T00:08:03.455Z,99484.38
2019-05-09T00:10:41.645Z,99483.88
2019-05-09T00:13:10.008Z,99481.64
2019-05-09T00:15:43.683Z,99479.45
2019-05-09T00:18:17.328Z,99478.55
2019-05-09T00:20:49.602Z,99481.13
2019-05-09T00:23:23.860Z,99471.14
2019-05-09T00:25:55.777Z,99474.56
2019-05-09T00:28:28.047Z,99478.02
2019-05-09T00:31:00.313Z,99481.05
2019-05-09T00:33:34.329Z,99484.52
2019-05-09T00:36:06.708Z,99484.91
2019-05-09T00:38:38.932Z,99489.21
2019-05-09T00:41:11.191Z,99490.09
2019-05-09T00:43:43.643Z,99493.97
2019-05-09T00:46:15.985Z,99485.68
2019-05-09T00:48:48.259Z,99489.11
2019-05-09T00:51:20.450Z,99492.13
2019-05-09T00:53:53.649Z,99498.16
2019-05-09T00:56:26.313Z,99489.87
2019-05-09T00:58:58.708Z,99494.20
2019-05-09T01:01:30.915Z,99488.94
2019-05-09T01:04:04.321Z,99484.13
2019-05-09T01:06:36.839Z,99483.25
2019-05-09T01:09:09.078Z,99482.37
2019-05-09T01:11:41.102Z,99480.23
2019-05-09T01:14:14.347Z,99480.69
2019-05-09T01:16:46.691Z,99484.16
2019-05-09T01:19:18.905Z,99485.89
2019-05-09T01:21:51.126Z,99481.11
2019-05-09T01:24:23.405Z,99481.11
2019-05-09T01:26:55.443Z,99480.63
2019-05-09T01:29:27.680Z,99484.50
2019-05-09T01:31:59.907Z,99488.83
2019-05-09T01:34:33.141Z,99492.67
2019-05-09T01:37:05.575Z,99483.95
2019-05-09T01:39:37.828Z,99486.55
2019-05-09T01:42:10.580Z,99482.20
2019-05-09T01:44:44.047Z,99483.05
2019-05-09T01:47:16.365Z,99483.92
2019-05-09T01:49:48.634Z,99488.70
2019-05-09T01:52:23.185Z,99489.97
2019-05-09T01:54:55.100Z,99499.92
2019-05-09T01:57:27.315Z,99494.69
2019-05-09T01:59:59.587Z,99484.26
2019-05-09T02:02:33.842Z,99493.78
2019-05-09T02:05:05.892Z,99490.30
2019-05-09T02:07:38.150Z,99486.80
2019-05-09T02:10:10.510Z,99487.25
2019-05-09T02:12:43.098Z,99485.95
2019-05-09T02:15:15.615Z,99485.88
2019-05-09T02:17:58.186Z,99481.07
2019-05-09T02:20:24.059Z,99490.56
2019-05-09T02:22:55.854Z,99483.19
2019-05-09T02:25:28.176Z,99483.22
2019-05-09T02:28:00.387Z,99486.66
2019-05-09T02:30:35.787Z,99490.95
2019-05-09T02:33:06.604Z,99489.19
2019-05-09T02:35:47.900Z,99484.84
2019-05-09T02:38:12.771Z,99486.59
2019-05-09T02:40:44.975Z,99484.03
2019-05-09T02:43:18.702Z,99478.41
2019-05-09T02:45:52.826Z,99475.34
2019-05-09T02:48:25.295Z,99479.70
2019-05-09T02:51:00.249Z,99481.88
2019-05-09T02:53:31.473Z,99476.65
2019-05-09T02:56:03.776Z,99475.73
2019-05-09T02:58:38.771Z,99480.06
2019-05-09T03:01:09.954Z,99480.48
2019-05-09T03:03:42.151Z,99479.56
2019-05-09T03:06:14.368Z,99483.44
2019-05-09T03:08:49.106Z,99478.66
2019-05-09T03:11:22.893Z,99478.62
2019-05-09T03:13:58.549Z,99487.69
2019-05-09T03:16:31.073Z,99481.22
2019-05-09T03:19:03.333Z,99485.58
2019-05-09T03:21:38.775Z,99487.27
2019-05-09T03:24:10.097Z,99477.28
2019-05-09T03:26:42.572Z,99475.56
2019-05-09T03:29:15.006Z,99479.85
2019-05-09T03:31:50.188Z,99476.80
2019-05-09T03:34:21.267Z,99477.25
2019-05-09T03:36:53.539Z,99472.51
2019-05-09T03:39:27.588Z,99468.72
2019-05-09T03:42:01.088Z,99467.48
2019-05-09T03:44:33.442Z,99470.22
2019-05-09T03:47:05.654Z,99468.62
2019-05-09T03:49:37.883Z,99476.06
2019-05-09T03:52:10.135Z,99471.25
2019-05-09T03:54:42.358Z,99471.16
2019-05-09T03:57:14.566Z,99468.55
2019-05-09T03:59:48.105Z,99463.81
2019-05-09T04:02:20.475Z,99467.71
2019-05-09T04:04:52.730Z,99472.48
2019-05-09T04:07:24.939Z,99468.59
2019-05-09T04:09:58.513Z,99465.47
2019-05-09T04:12:30.909Z,99464.53
2019-05-09T04:15:03.393Z,99464.88
2019-05-09T04:17:35.767Z,99467.41
2019-05-09T04:20:08.214Z,99471.73
2019-05-09T04:22:40.707Z,99467.84
2019-05-09T04:25:13.313Z,99470.02
2019-05-09T04:27:47.912Z,99473.07
2019-05-09T04:30:19.505Z,99475.28
2019-05-09T04:32:51.746Z,99471.77
2019-05-09T04:35:23.950Z,99470.50
2019-05-09T04:37:58.270Z,99473.52
2019-05-09T04:40:32.204Z,99476.16
2019-05-09T04:43:12.001Z,99472.72
2019-05-09T04:45:41.846Z,99478.86
2019-05-09T04:48:20.250Z,99471.58
2019-05-09T04:50:47.907Z,99478.66
2019-05-09T04:53:21.448Z,99483.53
2019-05-09T04:55:53.812Z,99486.36
2019-05-09T04:58:27.396Z,99486.61
2019-05-09T05:00:59.984Z,99482.45
2019-05-09T05:03:32.277Z,99489.16
2019-05-09T05:06:04.854Z,99482.23
2019-05-09T05:08:37.590Z,99492.67
2019-05-09T05:11:10.051Z,99486.61
2019-05-09T05:13:42.349Z,99488.34
2019-05-09T05:16:14.574Z,99488.32
2019-05-09T05:18:47.812Z,99487.88
2019-05-09T05:21:20.606Z,99487.40
2019-05-09T05:23:53.060Z,99485.70
2019-05-09T05:26:27.570Z,99480.91
2019-05-09T05:28:59.347Z,99482.20
2019-05-09T05:31:31.570Z,99479.17
2019-05-09T08:27:48.705Z,99564.39
2019-05-09T08:30:20.970Z,99566.03
2019-05-09T08:32:53.243Z,99566.59
2019-05-09T08:35:28.094Z,99569.88
2019-05-09T08:38:00.492Z,99572.16
2019-05-09T08:40:32.783Z,99568.75
2019-05-09T08:43:07.390Z,99585.17
2019-05-09T08:45:38.964Z,99586.96
2019-05-09T08:48:11.216Z,99584.45
2019-05-09T08:50:43.500Z,99587.08
2019-05-09T08:53:18.156Z,99582.78
2019-05-09T08:55:49.900Z,99585.04
2019-05-09T08:58:22.253Z,99585.66
2019-05-09T09:00:54.700Z,99592.78
2019-05-09T09:03:29.007Z,99589.87
2019-05-09T09:06:02.352Z,99594.77
2019-05-09T09:08:34.622Z,99590.89
2019-05-09T09:11:08.605Z,99593.81
2019-05-09T09:13:40.893Z,99595.38
2019-05-09T09:16:18.716Z,99591.64
2019-05-09T09:18:48.140Z,99599.70
2019-05-09T09:21:20.653Z,99600.23
2019-05-09T09:23:52.880Z,99599.92
2019-05-09T09:26:27.546Z,99601.50
2019-05-09T09:28:59.034Z,99598.77
2019-05-09T09:31:31.251Z,99599.69
2019-05-09T09:34:03.489Z,99601.72
2019-05-09T09:36:35.948Z,99597.69
2019-05-09T09:39:08.272Z,99596.95
2019-05-09T09:41:40.635Z,99597.34
2019-05-09T09:44:13.031Z,99599.44
2019-05-09T09:46:45.302Z,99599.33
2019-05-09T09:49:18.141Z,99602.27
2019-05-09T09:51:50.502Z,99602.86
2019-05-09T09:54:22.788Z,99608.58
2019-05-09T09:56:55.010Z,99610.23
2019-05-09T09:59:28.260Z,99606.41
2019-05-09T10:02:00.571Z,99609.70
2019-05-09T10:04:32.839Z,99610.98
2019-05-09T10:07:08.692Z,99611.75
2019-05-09T10:09:40.073Z,99607.88
2019-05-09T10:12:12.267Z,99614.95
2019-05-09T10:14:44.482Z,99620.40
2019-05-09T10:17:17.975Z,99616.66
2019-05-09T10:19:50.660Z,99620.92
2019-05-09T10:22:25.417Z,99624.75
2019-05-09T10:24:59.266Z,99626.52
2019-05-09T10:27:32.628Z,99628.64
2019-05-09T10:30:04.980Z,99631.91
2019-05-09T10:32:38.381Z,99621.87
2019-05-09T10:35:10.787Z,99624.97
2019-05-09T10:37:42.992Z,99625.20
2019-05-09T10:40:15.331Z,99626.75
2019-05-09T10:42:48.384Z,99627.82
2019-05-09T10:45:20.764Z,99627.19
2019-05-09T10:47:52.814Z,99635.40
2019-05-09T10:50:25.039Z,99639.25
2019-05-09T10:52:58.455Z,99643.52
2019-05-09T10:55:31.992Z,99642.82
2019-05-09T10:58:04.357Z,99647.14
2019-05-09T11:00:39.325Z,99655.36
2019-05-09T11:03:10.564Z,99647.84
2019-05-09T11:05:42.807Z,99654.42
2019-05-09T11:08:15.022Z,99654.66
2019-05-09T11:10:47.550Z,99647.27
2019-05-09T11:13:19.943Z,99657.63
2019-05-09T11:15:52.202Z,99664.31
2019-05-09T11:18:24.455Z,99663.38
2019-05-09T11:20:58.094Z,99674.72
2019-05-09T11:23:30.566Z,99662.67
2019-05-09T11:26:02.810Z,99669.39
2019-05-09T11:28:35.035Z,99675.50
2019-05-09T11:31:08.130Z,99673.42
2019-05-09T11:33:40.590Z,99680.16
2019-05-09T11:36:13.093Z,99684.88
2019-05-09T11:38:49.099Z,99680.48
2019-05-09T11:41:19.844Z,99682.27
2019-05-09T11:43:52.053Z,99687.73
2019-05-09T11:46:24.279Z,99683.50
2019-05-09T11:48:58.518Z,99683.50
2019-05-09T11:51:30.852Z,99693.24
2019-05-09T11:54:03.081Z,99702.10
2019-05-09T11:56:35.285Z,99698.81
2019-05-09T11:59:07.986Z,99698.63
2019-05-09T12:01:40.537Z,99700.58
2019-05-09T12:04:12.812Z,99699.13
2019-05-09T12:06:45.102Z,99699.00
2019-05-09T12:09:17.366Z,99699.07
2019-05-09T12:11:49.752Z,99705.45
2019-05-09T12:14:22.367Z,99702.76
2019-05-09T12:16:54.991Z,99704.48
2019-05-09T12:19:29.548Z,99697.89
2019-05-09T12:22:01.125Z,99705.52
2019-05-09T12:24:33.447Z,99707.61
2019-05-09T12:27:05.723Z,99705.42
2019-05-09T12:29:38.699Z,99705.72
2019-05-09T12:32:11.055Z,99712.37
2019-05-09T12:34:43.343Z,99713.67
2019-05-09T12:37:18.230Z,99707.52
2019-05-09T12:39:50.534Z,99724.67
2019-05-09T12:42:23.751Z,99732.81
2019-05-09T12:44:58.747Z,99730.34
2019-05-09T12:47:31.391Z,99746.62
2019-05-09T12:50:08.448Z,99747.59
2019-05-09T12:52:40.193Z,99740.64
2019-05-09T12:55:14.553Z,99741.91
2019-05-09T12:57:48.937Z,99752.75
2019-05-09T13:00:20.765Z,99747.90
2019-05-09T13:02:53.032Z,99743.71
2019-05-09T13:05:27.394Z,99743.55
2019-05-09T13:07:59.320Z,99750.43
2019-05-09T13:10:31.525Z,99756.45
2019-05-09T13:13:08.769Z,99754.43
2019-05-09T13:15:40.058Z,99755.93
2019-05-09T13:18:22.002Z,99752.34
2019-05-09T13:20:48.748Z,99758.28
2019-05-09T13:23:21.194Z,99760.01
2019-05-09T13:25:53.627Z,99761.34
2019-05-09T13:28:25.891Z,99753.84
2019-05-09T13:30:58.553Z,99763.70
2019-05-09T13:33:31.335Z,99760.58
2019-05-09T13:36:03.633Z,99764.87
2019-05-09T13:38:37.859Z,99760.64
2019-05-09T13:41:09.967Z,99762.42
2019-05-09T13:43:51.555Z,99768.41
2019-05-09T13:46:18.472Z,99765.48
2019-05-09T13:49:05.769Z,99768.17
2019-05-09T13:51:24.672Z,99764.42
2019-05-09T13:53:59.070Z,99770.52
2019-05-09T13:56:30.894Z,99779.53
2019-05-09T13:59:03.332Z,99782.33
2019-05-09T14:01:37.617Z,99783.16
2019-05-09T14:04:09.554Z,99782.63
2019-05-09T14:06:41.952Z,99779.81
2019-05-09T14:09:14.173Z,99786.92
2019-05-09T14:11:47.951Z,99776.27
2019-05-09T14:14:20.403Z,99790.84
2019-05-09T14:16:52.598Z,99778.52
2019-05-09T14:19:36.187Z,99781.83
2019-05-09T14:21:59.901Z,99791.58
2019-05-09T14:24:32.150Z,99787.47
2019-05-09T14:27:04.482Z,99787.97
2019-05-09T14:29:38.396Z,99791.89
2019-05-09T14:32:10.730Z,99797.22
2019-05-09T14:34:44.192Z,99797.73
2019-05-09T14:37:18.028Z,99795.53
2019-05-09T14:39:58.401Z,99798.70
2019-05-09T14:42:24.470Z,99800.05
2019-05-09T14:44:58.481Z,99800.83
2019-05-09T14:47:30.628Z,99808.42
2019-05-09T14:50:03.087Z,99801.70
2019-05-09T14:52:38.182Z,99808.64
2019-05-09T14:55:09.254Z,99803.27
2019-05-09T14:57:41.489Z,99796.18
2019-05-09T15:00:13.722Z,99802.90
2019-05-09T15:02:45.946Z,99804.84
2019-05-09T15:05:18.944Z,99811.20
2019-05-09T15:07:53.779Z,99811.84
2019-05-09T15:10:25.520Z,99813.53
2019-05-09T15:12:58.537Z,99810.11
2019-05-09T15:15:32.718Z,99810.61
2019-05-09T15:18:07.955Z,99814.42
2019-05-09T15:20:39.222Z,99811.69
2019-05-09T15:23:11.422Z,99804.74
2019-05-09T15:25:43.691Z,99822.80
2019-05-09T15:28:17.565Z,99823.70
2019-05-09T15:30:50.001Z,99825.80
2019-05-09T15:33:22.227Z,99834.43
2019-05-09T15:35:55.079Z,99835.04
2019-05-09T15:38:28.977Z,99838.01
2019-05-09T15:41:01.593Z,99834.45
2019-05-09T15:43:34.191Z,99844.48
2019-05-09T15:46:08.410Z,99834.23
2019-05-09T15:48:41.724Z,99836.50
2019-05-09T15:51:14.848Z,99830.72
2019-05-09T15:53:48.658Z,99837.55
2019-05-09T15:56:21.084Z,99849.42
2019-05-09T15:58:53.437Z,99849.48
2019-05-09T16:01:27.875Z,99841.50
2019-05-09T16:04:00.131Z,99843.45
2019-05-09T16:06:33.371Z,99850.78
2019-05-09T16:09:09.306Z,99853.27
2019-05-09T16:11:43.113Z,99857.98
2019-05-09T16:14:18.391Z,99859.25
2019-05-09T16:16:50.996Z,99866.02
2019-05-09T16:19:25.287Z,99865.88
2019-05-09T16:21:57.508Z,99870.89
2019-05-09T16:24:29.776Z,99865.70
2019-05-09T16:27:02.085Z,99863.09
2019-05-09T16:29:34.211Z,99862.39
2019-05-09T16:32:08.828Z,99854.67
2019-05-09T16:34:41.607Z,99859.86
2019-05-09T16:37:13.846Z,99854.30
2019-05-09T16:39:47.635Z,99860.64
2019-05-09T16:42:21.422Z,99862.84
2019-05-09T16:44:54.088Z,99860.70
2019-05-09T16:47:28.712Z,99864.59
2019-05-09T16:50:01.261Z,99870.28
2019-05-09T16:52:34.942Z,99865.23
2019-05-09T16:55:08.201Z,99864.06
2019-05-09T16:57:41.998Z,99871.56
2019-05-09T17:00:14.374Z,99873.77
2019-05-09T17:02:48.110Z,99880.28
2019-05-09T17:05:21.296Z,99878.61
2019-05-09T17:07:55.452Z,99880.00
2019-05-09T17:10:28.426Z,99882.31
2019-05-09T17:13:01.381Z,99889.52
2019-05-09T17:15:35.547Z,99896.77
2019-05-09T17:18:10.065Z,99887.86
2019-05-09T17:20:42.217Z,99894.83
2019-05-09T17:23:15.752Z,99897.36
2019-05-09T17:25:48.305Z,99902.19
2019-05-09T17:28:20.898Z,99902.70
2019-05-09T17:30:53.312Z,99902.98
2019-05-09T17:33:28.455Z,99912.14
2019-05-09T17:35:59.653Z,99918.67
2019-05-09T17:38:32.169Z,99914.68
2019-05-09T17:41:05.478Z,99913.91
2019-05-09T17:43:38.351Z,99921.18
2019-05-09T17:46:10.811Z,99927.13
2019-05-09T17:48:43.113Z,99929.16
2019-05-09T17:51:18.662Z,99930.45
2019-05-09T17:53:52.010Z,99929.42
2019-05-09T17:56:23.711Z,99942.60
2019-05-09T17:58:57.871Z,99951.42
2019-05-09T18:01:29.944Z,99950.33
2019-05-09T18:04:02.578Z,99952.30
2019-05-09T18:06:34.607Z,99945.34
2019-05-09T18:09:08.428Z,99943.22
2019-05-09T18:11:41.449Z,99954.70
2019-05-09T18:14:13.918Z,99959.18
2019-05-09T18:16:47.773Z,99958.80
2019-05-09T18:19:20.383Z,99964.10
2019-05-09T18:21:52.638Z,99963.28
2019-05-09T18:24:25.224Z,99968.53
2019-05-09T18:26:58.381Z,99971.17
2019-05-09T18:29:30.908Z,99976.47
2019-05-09T18:32:03.127Z,99978.15
2019-05-09T18:34:37.859Z,99983.39
2019-05-09T18:37:09.407Z,99988.17
2019-05-09T18:39:41.673Z,99990.39
2019-05-09T18:42:13.959Z,99997.84
2019-05-09T18:44:47.658Z,99993.99
2019-05-09T18:47:21.250Z,99998.45
2019-05-09T18:49:53.543Z,99995.41
2019-05-09T18:52:25.755Z,100007.74
2019-05-09T18:54:58.127Z,100004.72
2019-05-09T18:57:30.696Z,100011.74
2019-05-09T19:00:03.080Z,100015.72
2019-05-09T19:02:37.714Z,100014.39
2019-05-09T19:05:12.956Z,100021.41
2019-05-09T19:07:46.006Z,100024.06
2019-05-09T19:10:18.275Z,100021.88
2019-05-09T19:12:50.530Z,100026.70
2019-05-09T19:15:22.741Z,100025.41
2019-05-09T19:17:56.130Z,100028.44
2019-05-09T19:20:28.341Z,100025.42
2019-05-09T19:23:00.591Z,100033.72
2019-05-09T19:25:32.936Z,100029.38
2019-05-09T19:28:05.390Z,100032.45
2019-05-09T19:30:37.526Z,100032.44
2019-05-09T19:33:09.729Z,100042.02
2019-05-09T19:35:42.332Z,100044.23
2019-05-09T19:38:14.594Z,100052.10
2019-05-09T19:40:47.076Z,100056.47
2019-05-09T19:43:19.353Z,100059.50
2019-05-09T19:45:52.615Z,100063.44
2019-05-09T19:48:24.840Z,100060.39
2019-05-09T19:50:59.351Z,100065.62
2019-05-09T19:53:31.654Z,100066.49
2019-05-09T19:56:04.303Z,100070.87
2019-05-09T19:58:36.572Z,100077.48
2019-05-09T20:01:08.961Z,100084.05
2019-05-09T20:03:41.249Z,100083.61
2019-05-09T20:06:16.463Z,100095.42
2019-05-09T20:08:47.275Z,100102.84
2019-05-09T20:11:19.692Z,100098.48
2019-05-09T20:13:52.398Z,100105.04
2019-05-09T20:16:24.696Z,100103.70
2019-05-09T20:18:56.950Z,100115.03
2019-05-09T20:21:29.595Z,100120.34
2019-05-09T20:24:02.055Z,100121.45
2019-05-09T20:26:34.457Z,100124.23
2019-05-09T20:29:06.759Z,100123.67
2019-05-09T20:31:39.065Z,100124.41
2019-05-09T20:34:11.274Z,100124.02
2019-05-09T20:36:43.543Z,100133.61
2019-05-09T20:39:15.821Z,100128.81
2019-05-09T20:41:48.010Z,100127.91
2019-05-09T20:44:20.339Z,100135.28
2019-05-09T20:46:52.567Z,100139.69
2019-05-09T20:49:24.800Z,100134.46
2019-05-09T20:51:58.240Z,100137.98
2019-05-09T20:54:30.585Z,100140.62
2019-05-09T20:57:03.815Z,100142.36
2019-05-09T20:59:36.058Z,100139.66
2019-05-09T21:02:08.348Z,100144.46
2019-05-09T21:04:40.584Z,100142.76
2019-05-09T21:07:13.274Z,100136.63
2019-05-09T21:09:45.525Z,100144.48
2019-05-09T21:12:17.835Z,100145.89
2019-05-09T21:14:50.070Z,100145.03
2019-05-09T21:17:22.547Z,100150.27
2019-05-09T21:19:54.797Z,100147.25
2019-05-09T21:22:26.822Z,100152.05
2019-05-09T21:24:59.071Z,100155.18
2019-05-09T21:27:31.304Z,100157.00
2019-05-09T21:30:03.500Z,100152.19
2019-05-09T21:32:37.006Z,100155.20
2019-05-09T21:35:09.491Z,100150.78
2019-05-09T21:37:41.715Z,100146.80
2019-05-09T21:40:13.991Z,100156.38
2019-05-09T21:42:46.309Z,100152.42
2019-05-09T21:45:18.570Z,100150.66
2019-05-09T21:47:50.891Z,100150.62
2019-05-09T21:50:23.242Z,100150.20
2019-05-09T21:52:56.601Z,100154.16
2019-05-09T21:55:28.823Z,100152.02
2019-05-09T21:58:00.846Z,100154.21
2019-05-09T22:00:34.376Z,100151.63
2019-05-09T22:03:06.921Z,100158.59
2019-05-09T22:05:39.182Z,100156.88
2019-05-09T22:08:11.504Z,100154.33
2019-05-09T22:10:44.046Z,100158.28
2019-05-09T22:13:16.224Z,100157.88
2019-05-09T22:15:48.801Z,100162.28
2019-05-09T22:18:21.275Z,100154.87
2019-05-09T22:20:53.620Z,100158.78
2019-05-09T22:23:25.995Z,100157.91
2019-05-09T22:25:58.315Z,100152.70
2019-05-09T22:28:30.561Z,100153.55
2019-05-09T22:31:02.803Z,100155.31
2019-05-09T22:33:35.095Z,100154.46
2019-05-09T22:36:07.315Z,100148.35
2019-05-09T22:38:43.168Z,100152.30
2019-05-09T22:41:13.529Z,100155.37
2019-05-09T22:43:48.083Z,100151.90
2019-05-09T22:46:20.282Z,100156.70
2019-05-09T22:48:52.735Z,100153.20
2019-05-09T22:51:25.161Z,100153.58
2019-05-09T22:54:11.590Z,100152.27
2019-05-09T22:56:31.411Z,100146.56
2019-05-09T22:59:03.670Z,100147.45
2019-05-09T23:01:35.873Z,100143.09
2019-05-09T23:04:08.126Z,100146.99
2019-05-09T23:06:40.344Z,100147.84
2019-05-09T23:09:12.587Z,100148.27
2019-05-09T23:11:44.858Z,100140.83
2019-05-09T23:14:17.083Z,100149.58
2019-05-09T23:16:50.679Z,100150.89
2019-05-09T23:19:23.223Z,100146.06
2019-05-09T23:21:55.496Z,100152.14
2019-05-09T23:24:28.903Z,100145.55
2019-05-09T23:27:01.447Z,100152.14
2019-05-09T23:29:35.755Z,100155.20
2019-05-09T23:32:07.842Z,100155.69
2019-05-09T23:34:40.079Z,100155.69
2019-05-09T23:37:12.330Z,100159.64
2019-05-09T23:39:44.544Z,100158.78
2019-05-09T23:42:16.747Z,100160.44
2019-05-09T23:44:48.837Z,100159.50
2019-05-09T23:47:21.043Z,100159.41
2019-05-09T23:49:53.271Z,100159.44
2019-05-09T23:52:25.501Z,100160.80
2019-05-09T23:54:57.831Z,100159.53
2019-05-09T23:57:30.123Z,100172.14
